sensor_id;sensor_type;location;lat;lon;timestamp;pressure;altitude;pressure_sealevel;temperature;humidity
62708;BME280;48769;51.624;5.886;2023-04-01T00:02:16;98981.19;;;9.64;100.00
62708;BME280;48769;51.624;5.886;2023-04-01T00:04:42;98985.63;;;9.63;100.00
62708;BME280;48769;51.624;5.886;2023-04-01T00:07:08;98985.97;;;9.58;100.00
62708;BME280;48769;51.624;5.886;2023-04-01T00:09:34;98979.41;;;9.53;100.00
62708;BME280;48769;51.624;5.886;2023-04-01T00:11:59;98982.75;;;9.55;100.00
62708;BME280;48769;51.624;5.886;2023-04-01T00:14:24;98980.84;;;9.57;100.00
62708;BME280;48769;51.624;5.886;2023-04-01T00:16:50;98984.53;;;9.54;100.00
62708;BME280;48769;51.624;5.886;2023-04-01T00:19:15;98983.59;;;9.55;100.00
62708;BME280;48769;51.624;5.886;2023-04-01T00:21:41;98987.41;;;9.51;100.00
62708;BME280;48769;51.624;5.886;2023-04-01T00:24:06;98982.13;;;9.51;100.00
62708;BME280;48769;51.624;5.886;2023-04-01T00:26:31;98989.13;;;9.52;100.00
62708;BME280;48769;51.624;5.886;2023-04-01T00:28:58;98981.06;;;9.54;100.00
62708;BME280;48769;51.624;5.886;2023-04-01T00:31:23;98991.75;;;9.52;100.00
62708;BME280;48769;51.624;5.886;2023-04-01T00:33:48;98992.69;;;9.51;100.00
62708;BME280;48769;51.624;5.886;2023-04-01T00:36:17;98981.91;;;9.54;100.00
62708;BME280;48769;51.624;5.886;2023-04-01T00:38:43;98990.78;;;9.53;100.00
62708;BME280;48769;51.624;5.886;2023-04-01T00:41:11;98989.56;;;9.46;100.00
62708;BME280;48769;51.624;5.886;2023-04-01T00:43:41;98991.00;;;9.50;100.00
62708;BME280;48769;51.624;5.886;2023-04-01T00:46:07;98987.19;;;9.54;100.00
62708;BME280;48769;51.624;5.886;2023-04-01T00:48:38;99004.78;;;9.54;100.00
62708;BME280;48769;51.624;5.886;2023-04-01T00:51:08;98993.41;;;9.53;100.00
62708;BME280;48769;51.624;5.886;2023-04-01T00:53:38;98991.84;;;9.51;100.00
62708;BME280;48769;51.624;5.886;2023-04-01T00:56:12;98992.06;;;9.48;100.00
62708;BME280;48769;51.624;5.886;2023-04-01T00:58:42;98992.81;;;9.50;100.00
62708;BME280;48769;51.624;5.886;2023-04-01T01:01:09;98998.78;;;9.52;100.00
62708;BME280;48769;51.624;5.886;2023-04-01T01:03:35;98989.13;;;9.52;100.00
62708;BME280;48769;51.624;5.886;2023-04-01T01:06:14;98995.81;;;9.56;100.00
62708;BME280;48769;51.624;5.886;2023-04-01T01:09:03;98997.25;;;9.60;100.00
62708;BME280;48769;51.624;5.886;2023-04-01T01:11:41;99001.19;;;9.55;100.00
62708;BME280;48769;51.624;5.886;2023-04-01T01:17:16;99000.34;;;9.54;100.00
62708;BME280;48769;51.624;5.886;2023-04-01T01:22:28;99011.13;;;9.51;100.00
62708;BME280;48769;51.624;5.886;2023-04-01T01:25:18;99009.00;;;9.56;100.00
62708;BME280;48769;51.624;5.886;2023-04-01T01:28:04;99009.69;;;9.58;100.00
62708;BME280;48769;51.624;5.886;2023-04-01T01:33:48;99011.25;;;9.61;100.00
62708;BME280;48769;51.624;5.886;2023-04-01T01:36:17;99015.59;;;9.62;100.00
62708;BME280;48769;51.624;5.886;2023-04-01T01:38:46;99018.25;;;9.62;100.00
62708;BME280;48769;51.624;5.886;2023-04-01T01:41:13;99020.00;;;9.62;100.00
62708;BME280;48769;51.624;5.886;2023-04-01T01:43:43;99018.09;;;9.64;100.00
62708;BME280;48769;51.624;5.886;2023-04-01T01:46:15;99019.78;;;9.65;100.00
62708;BME280;48769;51.624;5.886;2023-04-01T01:48:42;99024.13;;;9.66;100.00
62708;BME280;48769;51.624;5.886;2023-04-01T01:51:08;99027.81;;;9.63;100.00
62708;BME280;48769;51.624;5.886;2023-04-01T01:53:34;99021.94;;;9.59;100.00
62708;BME280;48769;51.624;5.886;2023-04-01T01:56:00;99027.31;;;9.58;100.00
62708;BME280;48769;51.624;5.886;2023-04-01T01:58:43;99025.66;;;9.57;100.00
62708;BME280;48769;51.624;5.886;2023-04-01T02:01:28;99028.88;;;9.60;100.00
62708;BME280;48769;51.624;5.886;2023-04-01T02:03:56;99030.19;;;9.55;100.00
62708;BME280;48769;51.624;5.886;2023-04-01T02:06:25;99034.38;;;9.57;100.00
62708;BME280;48769;51.624;5.886;2023-04-01T02:08:57;99032.25;;;9.63;100.00
62708;BME280;48769;51.624;5.886;2023-04-01T02:11:31;99037.28;;;9.66;100.00
62708;BME280;48769;51.624;5.886;2023-04-01T02:14:13;99040.16;;;9.63;100.00
62708;BME280;48769;51.624;5.886;2023-04-01T02:16:49;99046.28;;;9.63;100.00
62708;BME280;48769;51.624;5.886;2023-04-01T02:19:17;99053.34;;;9.63;100.00
62708;BME280;48769;51.624;5.886;2023-04-01T02:21:50;99048.31;;;9.59;100.00
62708;BME280;48769;51.624;5.886;2023-04-01T02:24:17;99045.91;;;9.56;100.00
62708;BME280;48769;51.624;5.886;2023-04-01T02:26:44;99053.06;;;9.54;100.00
62708;BME280;48769;51.624;5.886;2023-04-01T02:29:11;99050.22;;;9.57;100.00
62708;BME280;48769;51.624;5.886;2023-04-01T02:31:37;99052.97;;;9.56;100.00
62708;BME280;48769;51.624;5.886;2023-04-01T02:34:02;99058.84;;;9.59;100.00
62708;BME280;48769;51.624;5.886;2023-04-01T02:36:28;99057.41;;;9.55;100.00
62708;BME280;48769;51.624;5.886;2023-04-01T02:38:53;99058.63;;;9.63;100.00
62708;BME280;48769;51.624;5.886;2023-04-01T02:41:21;99062.56;;;9.68;100.00
62708;BME280;48769;51.624;5.886;2023-04-01T02:43:46;99065.34;;;9.67;100.00
62708;BME280;48769;51.624;5.886;2023-04-01T02:46:11;99062.41;;;9.58;100.00
62708;BME280;48769;51.624;5.886;2023-04-01T02:48:36;99066.53;;;9.63;100.00
62708;BME280;48769;51.624;5.886;2023-04-01T02:51:02;99065.56;;;9.52;100.00
62708;BME280;48769;51.624;5.886;2023-04-01T02:53:28;99070.69;;;9.54;100.00
62708;BME280;48769;51.624;5.886;2023-04-01T02:55:54;99076.78;;;9.54;100.00
62708;BME280;48769;51.624;5.886;2023-04-01T02:58:22;99068.78;;;9.56;100.00
62708;BME280;48769;51.624;5.886;2023-04-01T03:00:47;99071.28;;;9.57;100.00
62708;BME280;48769;51.624;5.886;2023-04-01T03:03:13;99075.38;;;9.62;100.00
62708;BME280;48769;51.624;5.886;2023-04-01T03:05:39;99074.66;;;9.59;100.00
62708;BME280;48769;51.624;5.886;2023-04-01T03:08:04;99079.34;;;9.56;100.00
62708;BME280;48769;51.624;5.886;2023-04-01T03:10:30;99083.78;;;9.55;100.00
62708;BME280;48769;51.624;5.886;2023-04-01T03:12:55;99079.34;;;9.56;100.00
62708;BME280;48769;51.624;5.886;2023-04-01T03:15:21;99079.34;;;9.56;100.00
62708;BME280;48769;51.624;5.886;2023-04-01T03:17:46;99083.78;;;9.55;100.00
62708;BME280;48769;51.624;5.886;2023-04-01T03:20:12;99084.00;;;9.52;100.00
62708;BME280;48769;51.624;5.886;2023-04-01T03:22:38;99077.25;;;9.48;100.00
62708;BME280;48769;51.624;5.886;2023-04-01T03:25:04;99087.09;;;9.46;100.00
62708;BME280;48769;51.624;5.886;2023-04-01T03:27:30;99092.38;;;9.46;100.00
62708;BME280;48769;51.624;5.886;2023-04-01T03:29:55;99089.72;;;9.46;100.00
62708;BME280;48769;51.624;5.886;2023-04-01T03:32:20;99090.44;;;9.48;100.00
62708;BME280;48769;51.624;5.886;2023-04-01T03:34:46;99095.94;;;9.45;100.00
62708;BME280;48769;51.624;5.886;2023-04-01T03:37:11;99091.84;;;9.41;100.00
62708;BME280;48769;51.624;5.886;2023-04-01T03:39:37;99094.78;;;9.49;100.00
62708;BME280;48769;51.624;5.886;2023-04-01T03:42:02;99089.00;;;9.44;100.00
62708;BME280;48769;51.624;5.886;2023-04-01T03:44:31;99100.97;;;9.48;100.00
62708;BME280;48769;51.624;5.886;2023-04-01T03:46:57;99095.00;;;9.46;100.00
62708;BME280;48769;51.624;5.886;2023-04-01T03:49:22;99093.53;;;9.42;100.00
62708;BME280;48769;51.624;5.886;2023-04-01T03:51:48;99103.84;;;9.45;100.00
62708;BME280;48769;51.624;5.886;2023-04-01T03:54:13;99102.69;;;9.49;100.00
62708;BME280;48769;51.624;5.886;2023-04-01T03:56:39;99104.59;;;9.47;100.00
62708;BME280;48769;51.624;5.886;2023-04-01T03:59:06;99098.69;;;9.44;100.00
62708;BME280;48769;51.624;5.886;2023-04-01T04:01:32;99104.59;;;9.47;100.00
62708;BME280;48769;51.624;5.886;2023-04-01T04:03:57;99101.22;;;9.45;100.00
62708;BME280;48769;51.624;5.886;2023-04-01T04:06:23;99098.19;;;9.39;100.00
62708;BME280;48769;51.624;5.886;2023-04-01T04:08:49;99107.44;;;9.44;100.00
62708;BME280;48769;51.624;5.886;2023-04-01T04:11:15;99105.25;;;9.38;100.00
62708;BME280;48769;51.624;5.886;2023-04-01T04:13:41;99104.56;;;9.36;100.00
62708;BME280;48769;51.624;5.886;2023-04-01T04:16:07;99104.94;;;9.43;100.00
62708;BME280;48769;51.624;5.886;2023-04-01T04:18:33;99106.84;;;9.41;100.00
62708;BME280;48769;51.624;5.886;2023-04-01T04:20:58;99109.34;;;9.42;100.00
62708;BME280;48769;51.624;5.886;2023-04-01T04:23:24;99110.75;;;9.35;100.00
62708;BME280;48769;51.624;5.886;2023-04-01T04:25:57;99113.16;;;9.38;100.00
62708;BME280;48769;51.624;5.886;2023-04-01T04:28:24;99109.81;;;9.36;100.00
62708;BME280;48769;51.624;5.886;2023-04-01T04:30:50;99115.09;;;9.36;100.00
62708;BME280;48769;51.624;5.886;2023-04-01T04:33:15;99121.06;;;9.38;100.00
62708;BME280;48769;51.624;5.886;2023-04-01T04:35:41;99117.00;;;9.34;100.00
62708;BME280;48769;51.624;5.886;2023-04-01T04:38:06;99119.84;;;9.31;100.00
62708;BME280;48769;51.624;5.886;2023-04-01T04:40:32;99123.09;;;9.34;100.00
62708;BME280;48769;51.624;5.886;2023-04-01T04:42:57;99123.94;;;9.35;100.00
62708;BME280;48769;51.624;5.886;2023-04-01T04:45:22;99131.34;;;9.30;100.00
62708;BME280;48769;51.624;5.886;2023-04-01T04:47:47;99140.19;;;9.29;100.00
62708;BME280;48769;51.624;5.886;2023-04-01T04:50:13;99131.56;;;9.27;100.00
62708;BME280;48769;51.624;5.886;2023-04-01T04:52:38;99143.56;;;9.31;100.00
62708;BME280;48769;51.624;5.886;2023-04-01T04:55:04;99136.00;;;9.26;100.00
62708;BME280;48769;51.624;5.886;2023-04-01T04:57:29;99139.47;;;9.27;100.00
62708;BME280;48769;51.624;5.886;2023-04-01T04:59:55;99141.16;;;9.28;100.00
62708;BME280;48769;51.624;5.886;2023-04-01T05:02:20;99142.22;;;9.25;100.00
62708;BME280;48769;51.624;5.886;2023-04-01T05:04:45;99142.13;;;9.27;100.00
62708;BME280;48769;51.624;5.886;2023-04-01T05:07:11;99141.50;;;9.23;100.00
62708;BME280;48769;51.624;5.886;2023-04-01T05:09:36;99145.91;;;9.23;100.00
62708;BME280;48769;51.624;5.886;2023-04-01T05:12:02;99154.78;;;9.22;100.00
62708;BME280;48769;51.624;5.886;2023-04-01T05:14:27;99149.50;;;9.22;100.00
62708;BME280;48769;51.624;5.886;2023-04-01T05:16:52;99154.56;;;9.25;100.00
62708;BME280;48769;51.624;5.886;2023-04-01T05:19:19;99158.03;;;9.25;100.00
62708;BME280;48769;51.624;5.886;2023-04-01T05:21:44;99163.66;;;9.21;100.00
62708;BME280;48769;51.624;5.886;2023-04-01T05:24:10;99163.41;;;9.24;100.00
62708;BME280;48769;51.624;5.886;2023-04-01T05:26:35;99161.50;;;9.26;100.00
62708;BME280;48769;51.624;5.886;2023-04-01T05:29:03;99165.09;;;9.25;100.00
62708;BME280;48769;51.624;5.886;2023-04-01T05:31:28;99169.19;;;9.29;100.00
62708;BME280;48769;51.624;5.886;2023-04-01T05:33:54;99172.38;;;9.21;100.00
62708;BME280;48769;51.624;5.886;2023-04-01T05:36:20;99173.13;;;9.23;100.00
62708;BME280;48769;51.624;5.886;2023-04-01T05:38:45;99176.06;;;9.19;100.00
62708;BME280;48769;51.624;5.886;2023-04-01T05:41:11;99185.91;;;9.17;100.00
62708;BME280;48769;51.624;5.886;2023-04-01T05:43:37;99178.22;;;9.13;100.00
62708;BME280;48769;51.624;5.886;2023-04-01T05:46:03;99181.34;;;9.19;100.00
62708;BME280;48769;51.624;5.886;2023-04-01T05:48:28;99184.81;;;9.19;100.00
62708;BME280;48769;51.624;5.886;2023-04-01T05:50:53;99188.53;;;9.17;100.00
62708;BME280;48769;51.624;5.886;2023-04-01T05:53:18;99187.56;;;9.18;100.00
62708;BME280;48769;51.624;5.886;2023-04-01T05:55:44;99192.63;;;9.21;100.00
62708;BME280;48769;51.624;5.886;2023-04-01T05:58:09;99197.16;;;9.19;100.00
62708;BME280;48769;51.624;5.886;2023-04-01T06:00:35;99201.16;;;9.24;100.00
62708;BME280;48769;51.624;5.886;2023-04-01T06:03:00;99198.59;;;9.23;100.00
62708;BME280;48769;51.624;5.886;2023-04-01T06:05:30;99201.25;;;9.23;100.00
62708;BME280;48769;51.624;5.886;2023-04-01T06:08:06;99211.56;;;9.26;100.00
62708;BME280;48769;51.624;5.886;2023-04-01T06:18:59;99223.06;;;9.25;100.00
62708;BME280;48769;51.624;5.886;2023-04-01T06:27:26;99238.66;;;9.28;100.00
62708;BME280;48769;51.624;5.886;2023-04-01T06:33:27;99251.38;;;9.34;100.00
62708;BME280;48769;51.624;5.886;2023-04-01T06:41:35;99263.69;;;9.46;100.00
62708;BME280;48769;51.624;5.886;2023-04-01T06:44:12;99261.53;;;9.51;100.00
62708;BME280;48769;51.624;5.886;2023-04-01T06:46:48;99267.78;;;9.50;100.00
62708;BME280;48769;51.624;5.886;2023-04-01T06:49:34;99270.28;;;9.52;100.00
62708;BME280;48769;51.624;5.886;2023-04-01T06:54:49;99279.34;;;9.60;100.00
62708;BME280;48769;51.624;5.886;2023-04-01T06:57:32;99269.31;;;9.66;100.00
62708;BME280;48769;51.624;5.886;2023-04-01T07:00:00;99277.00;;;9.69;100.00
62708;BME280;48769;51.624;5.886;2023-04-01T07:02:43;99279.63;;;9.69;100.00
62708;BME280;48769;51.624;5.886;2023-04-01T07:05:11;99284.56;;;9.73;100.00
62708;BME280;48769;51.624;5.886;2023-04-01T07:07:47;99290.59;;;9.75;100.00
62708;BME280;48769;51.624;5.886;2023-04-01T07:10:20;99286.41;;;9.84;100.00
62708;BME280;48769;51.624;5.886;2023-04-01T07:13:00;99298.88;;;9.82;100.00
62708;BME280;48769;51.624;5.886;2023-04-01T07:15:38;99303.25;;;9.94;100.00
62708;BME280;48769;51.624;5.886;2023-04-01T07:18:12;99302.91;;;9.99;100.00
62708;BME280;48769;51.624;5.886;2023-04-01T07:20:39;99306.28;;;10.01;100.00
62708;BME280;48769;51.624;5.886;2023-04-01T07:23:10;99306.84;;;9.93;100.00
62708;BME280;48769;51.624;5.886;2023-04-01T07:25:41;99310.69;;;10.00;100.00
62708;BME280;48769;51.624;5.886;2023-04-01T07:28:13;99314.53;;;9.96;100.00
62708;BME280;48769;51.624;5.886;2023-04-01T07:31:02;99318.06;;;10.08;100.00
62708;BME280;48769;51.624;5.886;2023-04-01T07:34:05;99325.63;;;10.13;100.00
62708;BME280;48769;51.624;5.886;2023-04-01T07:36:54;99331.97;;;10.10;100.00
62708;BME280;48769;51.624;5.886;2023-04-01T07:39:43;99324.91;;;10.11;100.00
62708;BME280;48769;51.624;5.886;2023-04-01T07:45:24;99336.19;;;10.13;100.00
62708;BME280;48769;51.624;5.886;2023-04-01T07:50:36;99348.16;;;10.29;100.00
62708;BME280;48769;51.624;5.886;2023-04-01T07:56:12;99352.53;;;10.18;100.00
62708;BME280;48769;51.624;5.886;2023-04-01T08:06:45;99365.38;;;10.22;100.00
62708;BME280;48769;51.624;5.886;2023-04-01T08:14:48;99379.53;;;10.34;100.00
62708;BME280;48769;51.624;5.886;2023-04-01T08:17:32;99386.69;;;10.32;100.00
62708;BME280;48769;51.624;5.886;2023-04-01T08:22:50;99392.75;;;10.45;100.00
62708;BME280;48769;51.624;5.886;2023-04-01T08:25:21;99396.06;;;10.36;100.00
62708;BME280;48769;51.624;5.886;2023-04-01T08:27:56;99401.34;;;10.36;100.00
62708;BME280;48769;51.624;5.886;2023-04-01T08:30:26;99414.31;;;10.39;100.00
62708;BME280;48769;51.624;5.886;2023-04-01T08:32:58;99416.25;;;10.37;100.00
62708;BME280;48769;51.624;5.886;2023-04-01T08:35:31;99409.03;;;10.39;100.00
62708;BME280;48769;51.624;5.886;2023-04-01T08:38:11;99415.94;;;10.29;100.00
62708;BME280;48769;51.624;5.886;2023-04-01T08:43:21;99425.81;;;10.27;100.00
62708;BME280;48769;51.624;5.886;2023-04-01T08:57:21;99446.00;;;10.39;100.00
62708;BME280;48769;51.624;5.886;2023-04-01T09:08:33;99464.91;;;10.33;100.00
62708;BME280;48769;51.624;5.886;2023-04-01T09:11:07;99463.03;;;10.35;100.00
62708;BME280;48769;51.624;5.886;2023-04-01T09:27:29;99487.91;;;10.44;100.00
62708;BME280;48769;51.624;5.886;2023-04-01T09:30:32;99494.88;;;10.45;100.00
62708;BME280;48769;51.624;5.886;2023-04-01T09:38:29;99503.50;;;10.60;100.00
62708;BME280;48769;51.624;5.886;2023-04-01T09:40:58;99507.84;;;10.72;100.00
62708;BME280;48769;51.624;5.886;2023-04-01T09:43:44;99508.72;;;10.72;100.00
62708;BME280;48769;51.624;5.886;2023-04-01T09:47:05;99515.28;;;10.67;100.00
62708;BME280;48769;51.624;5.886;2023-04-01T09:57:44;99516.53;;;10.74;100.00
62708;BME280;48769;51.624;5.886;2023-04-01T10:06:40;99522.53;;;11.00;100.00
62708;BME280;48769;51.624;5.886;2023-04-01T10:40:37;99557.53;;;11.15;100.00
62708;BME280;48769;51.624;5.886;2023-04-01T10:46:09;99572.25;;;11.30;100.00
62708;BME280;48769;51.624;5.886;2023-04-01T10:52:01;99580.31;;;11.29;100.00
62708;BME280;48769;51.624;5.886;2023-04-01T10:57:54;99582.59;;;11.33;100.00
62708;BME280;48769;51.624;5.886;2023-04-01T11:09:16;99589.47;;;11.47;100.00
62708;BME280;48769;51.624;5.886;2023-04-01T11:24:32;99607.22;;;11.34;100.00
62708;BME280;48769;51.624;5.886;2023-04-01T11:27:31;99607.75;;;11.39;100.00
62708;BME280;48769;51.624;5.886;2023-04-01T11:38:37;99631.94;;;11.57;100.00
62708;BME280;48769;51.624;5.886;2023-04-01T11:41:43;99630.00;;;11.48;100.00
62708;BME280;48769;51.624;5.886;2023-04-01T11:44:23;99618.19;;;11.40;100.00
62708;BME280;48769;51.624;5.886;2023-04-01T11:49:40;99635.34;;;11.59;100.00
62708;BME280;48769;51.624;5.886;2023-04-01T11:57:52;99645.16;;;11.81;100.00
62708;BME280;48769;51.624;5.886;2023-04-01T12:06:39;99661.09;;;11.68;100.00
62708;BME280;48769;51.624;5.886;2023-04-01T12:09:24;99666.78;;;11.75;100.00
62708;BME280;48769;51.624;5.886;2023-04-01T12:14:54;99667.06;;;11.59;100.00
62708;BME280;48769;51.624;5.886;2023-04-01T12:17:30;99668.53;;;11.63;100.00
62708;BME280;48769;51.624;5.886;2023-04-01T12:36:18;99697.28;;;11.91;100.00
62708;BME280;48769;51.624;5.886;2023-04-01T12:47:31;99705.47;;;12.46;100.00
62708;BME280;48769;51.624;5.886;2023-04-01T12:50:38;99703.19;;;12.53;100.00
62708;BME280;48769;51.624;5.886;2023-04-01T12:53:25;99712.81;;;12.54;100.00
62708;BME280;48769;51.624;5.886;2023-04-01T12:55:59;99714.25;;;12.47;100.00
62708;BME280;48769;51.624;5.886;2023-04-01T13:01:27;99717.38;;;12.63;100.00
62708;BME280;48769;51.624;5.886;2023-04-01T13:12:42;99733.50;;;12.37;100.00
62708;BME280;48769;51.624;5.886;2023-04-01T13:15:11;99736.41;;;12.46;100.00
62708;BME280;48769;51.624;5.886;2023-04-01T13:18:03;99741.00;;;12.66;100.00
62708;BME280;48769;51.624;5.886;2023-04-01T13:20:44;99744.50;;;12.78;100.00
62708;BME280;48769;51.624;5.886;2023-04-01T13:23:24;99751.63;;;12.77;100.00
62708;BME280;48769;51.624;5.886;2023-04-01T13:26:12;99749.91;;;12.76;100.00
62708;BME280;48769;51.624;5.886;2023-04-01T13:28:42;99753.03;;;12.59;100.00
62708;BME280;48769;51.624;5.886;2023-04-01T13:42:12;99765.25;;;12.26;100.00
62708;BME280;48769;51.624;5.886;2023-04-01T13:45:02;99762.41;;;12.40;100.00
62708;BME280;48769;51.624;5.886;2023-04-01T14:02:08;99785.63;;;12.02;100.00
62708;BME280;48769;51.624;5.886;2023-04-01T14:10:19;99785.59;;;11.90;100.00
62708;BME280;48769;51.624;5.886;2023-04-01T14:13:00;99790.56;;;11.82;100.00
62708;BME280;48769;51.624;5.886;2023-04-01T14:18:37;99801.13;;;11.82;100.00
62708;BME280;48769;51.624;5.886;2023-04-01T14:21:30;99796.50;;;11.73;100.00
62708;BME280;48769;51.624;5.886;2023-04-01T14:26:37;99812.00;;;11.66;100.00
62708;BME280;48769;51.624;5.886;2023-04-01T14:29:23;99812.38;;;11.73;100.00
62708;BME280;48769;51.624;5.886;2023-04-01T14:37:35;99821.69;;;11.79;100.00
62708;BME280;48769;51.624;5.886;2023-04-01T14:43:10;99823.84;;;11.74;100.00
62708;BME280;48769;51.624;5.886;2023-04-01T14:51:03;99833.28;;;11.65;100.00
62708;BME280;48769;51.624;5.886;2023-04-01T14:53:36;99835.47;;;11.71;100.00
62708;BME280;48769;51.624;5.886;2023-04-01T14:56:07;99835.97;;;11.76;100.00
62708;BME280;48769;51.624;5.886;2023-04-01T14:58:45;99834.69;;;11.82;100.00
62708;BME280;48769;51.624;5.886;2023-04-01T15:09:46;99846.91;;;11.84;100.00
62708;BME280;48769;51.624;5.886;2023-04-01T15:12:30;99863.53;;;11.86;100.00
62708;BME280;48769;51.624;5.886;2023-04-01T15:15:22;99861.06;;;11.96;100.00
62708;BME280;48769;51.624;5.886;2023-04-01T15:18:07;99871.56;;;11.72;100.00
62708;BME280;48769;51.624;5.886;2023-04-01T15:29:22;99881.50;;;11.81;100.00
62708;BME280;48769;51.624;5.886;2023-04-01T15:31:53;99893.47;;;11.87;100.00
62708;BME280;48769;51.624;5.886;2023-04-01T15:34:37;99885.81;;;11.82;100.00
62708;BME280;48769;51.624;5.886;2023-04-01T15:37:20;99887.75;;;11.80;100.00
62708;BME280;48769;51.624;5.886;2023-04-01T15:45:45;99909.03;;;11.66;100.00
62708;BME280;48769;51.624;5.886;2023-04-01T15:48:30;99910.00;;;11.65;100.00
62708;BME280;48769;51.624;5.886;2023-04-01T15:57:08;99898.16;;;11.58;100.00
62708;BME280;48769;51.624;5.886;2023-04-01T16:00:05;99909.59;;;11.58;100.00
62708;BME280;48769;51.624;5.886;2023-04-01T16:02:53;99912.78;;;11.51;100.00
62708;BME280;48769;51.624;5.886;2023-04-01T16:07:58;99934.16;;;11.48;100.00
62708;BME280;48769;51.624;5.886;2023-04-01T16:19:36;99940.50;;;11.32;100.00
62708;BME280;48769;51.624;5.886;2023-04-01T16:30:38;99948.31;;;11.46;100.00
62708;BME280;48769;51.624;5.886;2023-04-01T16:36:14;99963.88;;;11.38;100.00
62708;BME280;48769;51.624;5.886;2023-04-01T16:39:35;99968.63;;;11.33;100.00
62708;BME280;48769;51.624;5.886;2023-04-01T16:42:13;99970.22;;;11.23;100.00
62708;BME280;48769;51.624;5.886;2023-04-01T16:47:23;99984.69;;;11.30;100.00
62708;BME280;48769;51.624;5.886;2023-04-01T16:50:27;99991.91;;;11.41;100.00
62708;BME280;48769;51.624;5.886;2023-04-01T16:55:49;99988.94;;;11.45;100.00
62708;BME280;48769;51.624;5.886;2023-04-01T16:58:24;100002.72;;;11.51;100.00
62708;BME280;48769;51.624;5.886;2023-04-01T17:00:58;100004.81;;;11.58;100.00
62708;BME280;48769;51.624;5.886;2023-04-01T17:03:44;100003.97;;;11.58;100.00
62708;BME280;48769;51.624;5.886;2023-04-01T17:14:31;100034.53;;;11.62;100.00
62708;BME280;48769;51.624;5.886;2023-04-01T17:20:24;100048.94;;;11.58;100.00
62708;BME280;48769;51.624;5.886;2023-04-01T17:31:07;100059.81;;;11.53;100.00
62708;BME280;48769;51.624;5.886;2023-04-01T17:33:45;100070.31;;;11.55;100.00
62708;BME280;48769;51.624;5.886;2023-04-01T17:44:57;100091.41;;;11.29;100.00
62708;BME280;48769;51.624;5.886;2023-04-01T17:47:49;100095.94;;;11.27;100.00
62708;BME280;48769;51.624;5.886;2023-04-01T17:50:21;100104.06;;;11.24;100.00
62708;BME280;48769;51.624;5.886;2023-04-01T17:53:09;100105.25;;;11.20;100.00
62708;BME280;48769;51.624;5.886;2023-04-01T17:55:48;100119.22;;;11.22;100.00
62708;BME280;48769;51.624;5.886;2023-04-01T17:58:21;100124.69;;;11.19;100.00
62708;BME280;48769;51.624;5.886;2023-04-01T18:07:28;100139.94;;;11.01;100.00
62708;BME280;48769;51.624;5.886;2023-04-01T18:15:46;100160.03;;;10.76;100.00
62708;BME280;48769;51.624;5.886;2023-04-01T18:24:10;100175.44;;;10.41;100.00
62708;BME280;48769;51.624;5.886;2023-04-01T18:26:42;100190.06;;;10.47;100.00
62708;BME280;48769;51.624;5.886;2023-04-01T18:31:39;100204.53;;;10.40;100.00
62708;BME280;48769;51.624;5.886;2023-04-01T18:36:56;100228.41;;;10.38;100.00
62708;BME280;48769;51.624;5.886;2023-04-01T18:39:46;100219.19;;;10.31;100.00
62708;BME280;48769;51.624;5.886;2023-04-01T18:44:53;100241.47;;;10.25;100.00
62708;BME280;48769;51.624;5.886;2023-04-01T18:47:41;100238.53;;;10.16;100.00
62708;BME280;48769;51.624;5.886;2023-04-01T18:50:21;100239.31;;;10.18;100.00
62708;BME280;48769;51.624;5.886;2023-04-01T18:52:52;100253.88;;;10.09;100.00
62708;BME280;48769;51.624;5.886;2023-04-01T18:55:29;100259.16;;;10.09;100.00
62708;BME280;48769;51.624;5.886;2023-04-01T18:58:10;100272.63;;;10.04;100.00
62708;BME280;48769;51.624;5.886;2023-04-01T19:00:41;100272.63;;;10.04;100.00
62708;BME280;48769;51.624;5.886;2023-04-01T19:05:44;100285.06;;;10.02;100.00
62708;BME280;48769;51.624;5.886;2023-04-01T19:08:34;100289.31;;;10.05;100.00
62708;BME280;48769;51.624;5.886;2023-04-01T19:21:57;100319.97;;;10.07;100.00
62708;BME280;48769;51.624;5.886;2023-04-01T19:27:39;100331.41;;;9.92;100.00
62708;BME280;48769;51.624;5.886;2023-04-01T19:38:38;100358.13;;;9.86;100.00
62708;BME280;48769;51.624;5.886;2023-04-01T19:41:32;100355.91;;;9.78;100.00
62708;BME280;48769;51.624;5.886;2023-04-01T19:46:40;100361.44;;;9.74;100.00
62708;BME280;48769;51.624;5.886;2023-04-01T19:52:07;100372.66;;;9.62;100.00
62708;BME280;48769;51.624;5.886;2023-04-01T20:00:02;100381.44;;;9.46;100.00
62708;BME280;48769;51.624;5.886;2023-04-01T20:10:42;100421.84;;;9.29;100.00
62708;BME280;48769;51.624;5.886;2023-04-01T20:13:28;100424.25;;;9.34;100.00
62708;BME280;48769;51.624;5.886;2023-04-01T20:16:00;100427.22;;;9.28;100.00
62708;BME280;48769;51.624;5.886;2023-04-01T20:21:31;100446.13;;;9.19;100.00
62708;BME280;48769;51.624;5.886;2023-04-01T20:26:38;100440.88;;;9.19;100.00
62708;BME280;48769;51.624;5.886;2023-04-01T20:32:40;100466.94;;;9.07;100.00
62708;BME280;48769;51.624;5.886;2023-04-01T20:40:50;100486.06;;;9.11;100.00
62708;BME280;48769;51.624;5.886;2023-04-01T20:43:35;100493.03;;;9.12;100.00
62708;BME280;48769;51.624;5.886;2023-04-01T20:46:19;100501.19;;;9.07;100.00
62708;BME280;48769;51.624;5.886;2023-04-01T20:51:30;100500.72;;;8.99;100.00
62708;BME280;48769;51.624;5.886;2023-04-01T20:59:52;100522.88;;;8.95;100.00
62708;BME280;48769;51.624;5.886;2023-04-01T21:07:55;100535.75;;;8.84;100.00
62708;BME280;48769;51.624;5.886;2023-04-01T21:10:39;100538.38;;;8.84;100.00
62708;BME280;48769;51.624;5.886;2023-04-01T21:16:01;100552.44;;;8.65;100.00
62708;BME280;48769;51.624;5.886;2023-04-01T21:21:25;100571.94;;;8.61;100.00
62708;BME280;48769;51.624;5.886;2023-04-01T21:26:53;100572.25;;;8.55;100.00
62708;BME280;48769;51.624;5.886;2023-04-01T21:35:11;100595.50;;;8.46;100.00
62708;BME280;48769;51.624;5.886;2023-04-01T21:37:49;100608.59;;;8.47;100.00